sensor_id;sensor_type;location;lat;lon;timestamp;pressure;altitude;pressure_sealevel;temperature;humidity
11523;BME280;40093;43.224;27.910;2023-03-12T00:00:16;99167.50;;;9.09;58.08
11523;BME280;40093;43.224;27.910;2023-03-12T00:02:44;99165.19;;;9.00;57.69
11523;BME280;40093;43.224;27.910;2023-03-12T00:05:11;99175.41;;;9.00;58.48
11523;BME280;40093;43.224;27.910;2023-03-12T00:07:39;99156.56;;;9.02;57.44
11523;BME280;40093;43.224;27.910;2023-03-12T00:10:07;99186.34;;;9.10;57.15
11523;BME280;40093;43.224;27.910;2023-03-12T00:12:34;99188.72;;;8.98;57.37
11523;BME280;40093;43.224;27.910;2023-03-12T00:15:01;99190.31;;;8.95;57.68
11523;BME280;40093;43.224;27.910;2023-03-12T00:17:28;99207.16;;;8.94;57.17
11523;BME280;40093;43.224;27.910;2023-03-12T00:19:56;99199.69;;;9.05;56.78
11523;BME280;40093;43.224;27.910;2023-03-12T00:22:23;99202.06;;;8.92;56.50
11523;BME280;40093;43.224;27.910;2023-03-12T00:24:52;99216.94;;;8.88;56.68
11523;BME280;40093;43.224;27.910;2023-03-12T00:27:19;99207.53;;;8.89;56.80
11523;BME280;40093;43.224;27.910;2023-03-12T00:29:46;99220.50;;;8.92;57.10
11523;BME280;40093;43.224;27.910;2023-03-12T00:32:13;99216.94;;;8.95;56.30
11523;BME280;40093;43.224;27.910;2023-03-12T00:34:41;99234.97;;;9.06;56.23
11523;BME280;40093;43.224;27.910;2023-03-12T00:37:08;99210.28;;;8.89;56.15
11523;BME280;40093;43.224;27.910;2023-03-12T00:39:35;99224.03;;;8.75;56.57
11523;BME280;40093;43.224;27.910;2023-03-12T00:42:04;99227.94;;;8.88;56.80
11523;BME280;40093;43.224;27.910;2023-03-12T00:44:31;99231.09;;;8.90;56.69
11523;BME280;40093;43.224;27.910;2023-03-12T00:46:58;99230.31;;;8.72;56.99
11523;BME280;40093;43.224;27.910;2023-03-12T00:49:25;99228.75;;;8.74;57.02
11523;BME280;40093;43.224;27.910;2023-03-12T00:51:51;99212.69;;;8.73;57.21
11523;BME280;40093;43.224;27.910;2023-03-12T00:54:19;99202.91;;;8.51;57.30
11523;BME280;40093;43.224;27.910;2023-03-12T00:56:47;99200.56;;;8.28;57.97
11523;BME280;40093;43.224;27.910;2023-03-12T00:59:15;99203.31;;;8.28;58.45
11523;BME280;40093;43.224;27.910;2023-03-12T01:01:43;99191.94;;;8.23;58.47
11523;BME280;40093;43.224;27.910;2023-03-12T01:04:10;99198.94;;;8.03;59.47
11523;BME280;40093;43.224;27.910;2023-03-12T01:06:37;99188.00;;;7.96;59.25
11523;BME280;40093;43.224;27.910;2023-03-12T01:09:06;99191.16;;;8.05;59.40
11523;BME280;40093;43.224;27.910;2023-03-12T01:11:34;99196.22;;;8.06;59.47
11523;BME280;40093;43.224;27.910;2023-03-12T01:14:01;99192.69;;;7.81;60.13
11523;BME280;40093;43.224;27.910;2023-03-12T01:16:30;99181.34;;;7.90;59.95
11523;BME280;40093;43.224;27.910;2023-03-12T01:18:59;99198.97;;;7.96;59.79
11523;BME280;40093;43.224;27.910;2023-03-12T01:21:26;99199.34;;;7.98;59.74
11523;BME280;40093;43.224;27.910;2023-03-12T01:23:54;99188.00;;;7.89;60.08
11523;BME280;40093;43.224;27.910;2023-03-12T01:26:21;99193.47;;;7.78;60.12
11523;BME280;40093;43.224;27.910;2023-03-12T01:28:49;99187.59;;;7.83;59.82
11523;BME280;40093;43.224;27.910;2023-03-12T01:31:17;99169.97;;;7.81;60.35
11523;BME280;40093;43.224;27.910;2023-03-12T01:33:47;99162.16;;;7.90;59.61
11523;BME280;40093;43.224;27.910;2023-03-12T01:36:16;99166.06;;;7.82;59.76
11523;BME280;40093;43.224;27.910;2023-03-12T01:38:44;99155.91;;;7.72;60.17
11523;BME280;40093;43.224;27.910;2023-03-12T01:41:11;99184.06;;;7.76;60.22
11523;BME280;40093;43.224;27.910;2023-03-12T01:43:38;99180.13;;;7.63;60.69
11523;BME280;40093;43.224;27.910;2023-03-12T01:46:22;99178.56;;;7.69;60.49
11523;BME280;40093;43.224;27.910;2023-03-12T01:48:55;99181.72;;;7.78;60.53
11523;BME280;40093;43.224;27.910;2023-03-12T01:51:26;99201.25;;;7.80;60.51
11523;BME280;40093;43.224;27.910;2023-03-12T01:53:56;99210.28;;;7.77;60.26
11523;BME280;40093;43.224;27.910;2023-03-12T01:56:26;99222.00;;;7.81;60.68
11523;BME280;40093;43.224;27.910;2023-03-12T01:58:55;99234.53;;;7.82;60.50
11523;BME280;40093;43.224;27.910;2023-03-12T02:01:24;99247.47;;;7.92;60.37
11523;BME280;40093;43.224;27.910;2023-03-12T02:03:54;99267.81;;;7.94;60.50
11523;BME280;40093;43.224;27.910;2023-03-12T02:06:25;99287.38;;;7.93;60.62
11523;BME280;40093;43.224;27.910;2023-03-12T02:08:56;99295.59;;;7.93;60.65
11523;BME280;40093;43.224;27.910;2023-03-12T02:11:24;99292.09;;;8.03;60.45
11523;BME280;40093;43.224;27.910;2023-03-12T02:13:51;99310.50;;;8.06;60.42
11523;BME280;40093;43.224;27.910;2023-03-12T02:16:19;99310.88;;;8.04;60.59
11523;BME280;40093;43.224;27.910;2023-03-12T02:18:47;99307.78;;;8.13;60.54
11523;BME280;40093;43.224;27.910;2023-03-12T02:21:20;99315.59;;;8.04;60.53
11523;BME280;40093;43.224;27.910;2023-03-12T02:23:54;99317.91;;;8.02;60.47
11523;BME280;40093;43.224;27.910;2023-03-12T02:26:24;99317.91;;;7.95;60.70
11523;BME280;40093;43.224;27.910;2023-03-12T02:28:52;99310.06;;;7.90;61.05
11523;BME280;40093;43.224;27.910;2023-03-12T02:31:22;99298.31;;;7.86;61.41
11523;BME280;40093;43.224;27.910;2023-03-12T02:33:52;99289.69;;;7.77;61.83
11523;BME280;40093;43.224;27.910;2023-03-12T02:36:20;99295.94;;;7.81;62.15
11523;BME280;40093;43.224;27.910;2023-03-12T02:38:49;99277.53;;;7.71;62.47
11523;BME280;40093;43.224;27.910;2023-03-12T02:41:19;99288.00;;;7.51;63.09
11523;BME280;40093;43.224;27.910;2023-03-12T02:43:56;99274.69;;;7.43;63.75
11523;BME280;40093;43.224;27.910;2023-03-12T02:46:25;99258.66;;;7.45;63.84
11523;BME280;40093;43.224;27.910;2023-03-12T02:48:54;99249.19;;;7.28;64.04
11523;BME280;40093;43.224;27.910;2023-03-12T02:51:21;99254.25;;;7.23;64.26
11523;BME280;40093;43.224;27.910;2023-03-12T02:53:48;99249.50;;;7.13;64.63
11523;BME280;40093;43.224;27.910;2023-03-12T02:56:20;99255.34;;;7.12;64.84
11523;BME280;40093;43.224;27.910;2023-03-12T02:58:48;99259.69;;;7.16;65.10
11523;BME280;40093;43.224;27.910;2023-03-12T03:01:15;99278.47;;;7.18;65.12
11523;BME280;40093;43.224;27.910;2023-03-12T03:03:43;99276.13;;;7.20;65.22
11523;BME280;40093;43.224;27.910;2023-03-12T03:06:10;99279.19;;;7.11;65.75
11523;BME280;40093;43.224;27.910;2023-03-12T03:08:37;99288.56;;;7.07;65.91
11523;BME280;40093;43.224;27.910;2023-03-12T03:11:04;99301.72;;;6.91;66.98
11523;BME280;40093;43.224;27.910;2023-03-12T03:13:32;99295.50;;;6.94;66.78
11523;BME280;40093;43.224;27.910;2023-03-12T03:16:01;99305.19;;;6.84;67.69
11523;BME280;40093;43.224;27.910;2023-03-12T03:18:29;99309.84;;;6.80;67.92
11523;BME280;40093;43.224;27.910;2023-03-12T03:20:57;99302.44;;;6.84;67.90
11523;BME280;40093;43.224;27.910;2023-03-12T03:23:24;99292.34;;;6.88;67.97
11523;BME280;40093;43.224;27.910;2023-03-12T03:25:52;99302.44;;;6.84;67.86
11523;BME280;40093;43.224;27.910;2023-03-12T03:28:19;99316.53;;;6.86;68.16
11523;BME280;40093;43.224;27.910;2023-03-12T03:30:46;99329.38;;;6.82;68.30
11523;BME280;40093;43.224;27.910;2023-03-12T03:33:14;99358.31;;;6.83;68.09
11523;BME280;40093;43.224;27.910;2023-03-12T03:35:41;99383.31;;;6.82;68.09
11523;BME280;40093;43.224;27.910;2023-03-12T03:38:08;99406.44;;;6.91;68.07
11523;BME280;40093;43.224;27.910;2023-03-12T03:40:35;99420.63;;;7.04;67.46
11523;BME280;40093;43.224;27.910;2023-03-12T03:43:01;99432.19;;;6.90;67.88
11523;BME280;40093;43.224;27.910;2023-03-12T03:45:28;99436.06;;;6.86;68.52
11523;BME280;40093;43.224;27.910;2023-03-12T03:47:55;99439.16;;;6.84;68.50
11523;BME280;40093;43.224;27.910;2023-03-12T03:50:23;99450.19;;;6.91;68.39
11523;BME280;40093;43.224;27.910;2023-03-12T03:52:50;99457.78;;;7.08;67.59
11523;BME280;40093;43.224;27.910;2023-03-12T03:55:17;99466.03;;;7.15;67.41
11523;BME280;40093;43.224;27.910;2023-03-12T03:57:44;99473.91;;;7.23;67.26
11523;BME280;40093;43.224;27.910;2023-03-12T04:00:12;99481.78;;;7.28;66.88
11523;BME280;40093;43.224;27.910;2023-03-12T04:02:42;99495.06;;;7.27;66.87
11523;BME280;40093;43.224;27.910;2023-03-12T04:05:09;99517.72;;;7.27;66.74
11523;BME280;40093;43.224;27.910;2023-03-12T04:07:37;99514.84;;;7.13;67.26
11523;BME280;40093;43.224;27.910;2023-03-12T04:10:05;99530.75;;;7.01;67.30
11523;BME280;40093;43.224;27.910;2023-03-12T04:12:32;99531.41;;;6.91;68.04
11523;BME280;40093;43.224;27.910;2023-03-12T04:14:59;99535.03;;;6.98;68.02
11523;BME280;40093;43.224;27.910;2023-03-12T04:17:26;99550.38;;;7.10;67.48
11523;BME280;40093;43.224;27.910;2023-03-12T04:19:53;99562.19;;;7.17;67.22
11523;BME280;40093;43.224;27.910;2023-03-12T04:22:20;99566.44;;;7.11;67.35
11523;BME280;40093;43.224;27.910;2023-03-12T04:24:48;99574.16;;;7.02;67.25
11523;BME280;40093;43.224;27.910;2023-03-12T04:27:15;99575.31;;;7.01;67.59
11523;BME280;40093;43.224;27.910;2023-03-12T04:29:42;99581.22;;;7.07;67.77
11523;BME280;40093;43.224;27.910;2023-03-12T04:32:09;99600.41;;;7.10;67.37
11523;BME280;40093;43.224;27.910;2023-03-12T04:34:36;99613.09;;;7.25;67.47
11523;BME280;40093;43.224;27.910;2023-03-12T04:37:03;99621.03;;;7.37;66.68
11523;BME280;40093;43.224;27.910;2023-03-12T04:39:30;99613.97;;;7.36;66.65
11523;BME280;40093;43.224;27.910;2023-03-12T04:41:58;99620.53;;;7.25;66.97
11523;BME280;40093;43.224;27.910;2023-03-12T04:44:25;99609.09;;;7.16;67.10
11523;BME280;40093;43.224;27.910;2023-03-12T04:46:52;99603.31;;;6.91;67.63
11523;BME280;40093;43.224;27.910;2023-03-12T04:49:19;99584.59;;;6.93;68.05
11523;BME280;40093;43.224;27.910;2023-03-12T04:51:46;99582.66;;;6.97;67.87
11523;BME280;40093;43.224;27.910;2023-03-12T04:54:14;99597.50;;;6.93;68.35
11523;BME280;40093;43.224;27.910;2023-03-12T04:56:41;99601.16;;;6.74;68.65
11523;BME280;40093;43.224;27.910;2023-03-12T04:59:09;99615.28;;;6.80;68.76
11523;BME280;40093;43.224;27.910;2023-03-12T05:01:36;99615.22;;;7.06;67.79
11523;BME280;40093;43.224;27.910;2023-03-12T05:04:04;99617.75;;;7.21;67.41
11523;BME280;40093;43.224;27.910;2023-03-12T05:06:32;99619.34;;;7.26;67.28
11523;BME280;40093;43.224;27.910;2023-03-12T05:08:59;99624.03;;;7.25;66.93
11523;BME280;40093;43.224;27.910;2023-03-12T05:11:26;99630.94;;;7.12;67.47
11523;BME280;40093;43.224;27.910;2023-03-12T05:13:53;99642.44;;;7.28;67.49
11523;BME280;40093;43.224;27.910;2023-03-12T05:16:21;99638.84;;;7.57;66.48
11523;BME280;40093;43.224;27.910;2023-03-12T05:18:48;99648.97;;;7.96;65.61
11523;BME280;40093;43.224;27.910;2023-03-12T05:21:17;99653.19;;;8.27;63.73
11523;BME280;40093;43.224;27.910;2023-03-12T05:23:44;99650.34;;;8.74;63.03
11523;BME280;40093;43.224;27.910;2023-03-12T05:26:16;99646.50;;;8.92;60.77
11523;BME280;40093;43.224;27.910;2023-03-12T05:28:44;99654.47;;;9.25;60.02
11523;BME280;40093;43.224;27.910;2023-03-12T05:31:11;99663.25;;;9.69;59.05
11523;BME280;40093;43.224;27.910;2023-03-12T05:33:40;99674.63;;;9.75;57.48
11523;BME280;40093;43.224;27.910;2023-03-12T05:36:07;99677.81;;;9.94;56.97
11523;BME280;40093;43.224;27.910;2023-03-12T05:38:34;99681.31;;;9.98;56.50
11523;BME280;40093;43.224;27.910;2023-03-12T05:41:03;99687.19;;;9.76;56.05
11523;BME280;40093;43.224;27.910;2023-03-12T05:43:30;99693.06;;;9.84;56.69
11523;BME280;40093;43.224;27.910;2023-03-12T05:45:58;99693.72;;;9.29;56.77
11523;BME280;40093;43.224;27.910;2023-03-12T05:48:25;99693.56;;;8.94;58.18
11523;BME280;40093;43.224;27.910;2023-03-12T05:50:53;99708.91;;;8.45;59.90
11523;BME280;40093;43.224;27.910;2023-03-12T05:53:21;99717.81;;;8.35;60.68
11523;BME280;40093;43.224;27.910;2023-03-12T05:55:47;99725.72;;;8.40;60.54
11523;BME280;40093;43.224;27.910;2023-03-12T05:58:14;99725.31;;;8.38;60.51
11523;BME280;40093;43.224;27.910;2023-03-12T06:00:42;99731.91;;;8.30;60.73
11523;BME280;40093;43.224;27.910;2023-03-12T06:03:09;99733.94;;;8.40;60.67
11523;BME280;40093;43.224;27.910;2023-03-12T06:05:37;99736.91;;;8.21;60.74
11523;BME280;40093;43.224;27.910;2023-03-12T06:08:05;99741.63;;;8.24;61.26
11523;BME280;40093;43.224;27.910;2023-03-12T06:10:36;99745.84;;;8.18;61.22
11523;BME280;40093;43.224;27.910;2023-03-12T06:13:04;99754.84;;;8.15;61.66
11523;BME280;40093;43.224;27.910;2023-03-12T06:15:31;99754.34;;;8.42;61.05
11523;BME280;40093;43.224;27.910;2023-03-12T06:17:58;99753.56;;;8.45;59.95
11523;BME280;40093;43.224;27.910;2023-03-12T06:20:25;99758.41;;;8.66;59.93
11523;BME280;40093;43.224;27.910;2023-03-12T06:22:51;99760.66;;;8.50;59.44
11523;BME280;40093;43.224;27.910;2023-03-12T06:25:20;99773.13;;;8.44;60.19
11523;BME280;40093;43.224;27.910;2023-03-12T06:27:47;99776.34;;;8.53;60.29
11523;BME280;40093;43.224;27.910;2023-03-12T06:30:15;99772.22;;;8.76;59.96
11523;BME280;40093;43.224;27.910;2023-03-12T06:32:41;99778.94;;;8.86;58.40
11523;BME280;40093;43.224;27.910;2023-03-12T06:35:08;99773.75;;;8.74;58.93
11523;BME280;40093;43.224;27.910;2023-03-12T06:37:35;99784.41;;;8.82;58.67
11523;BME280;40093;43.224;27.910;2023-03-12T06:40:03;99783.34;;;8.97;58.57
11523;BME280;40093;43.224;27.910;2023-03-12T06:42:35;99791.59;;;9.01;57.91
11523;BME280;40093;43.224;27.910;2023-03-12T06:45:03;99793.19;;;9.09;57.84
11523;BME280;40093;43.224;27.910;2023-03-12T06:47:29;99801.09;;;9.14;57.18
11523;BME280;40093;43.224;27.910;2023-03-12T06:49:56;99798.75;;;9.16;57.33
11523;BME280;40093;43.224;27.910;2023-03-12T06:52:23;99800.84;;;9.40;57.77
11523;BME280;40093;43.224;27.910;2023-03-12T06:54:51;99801.47;;;9.97;56.73
11523;BME280;40093;43.224;27.910;2023-03-12T06:57:18;99814.97;;;10.58;54.35
11523;BME280;40093;43.224;27.910;2023-03-12T06:59:47;99822.03;;;11.01;52.41
11523;BME280;40093;43.224;27.910;2023-03-12T07:02:13;99821.94;;;11.50;51.30
11523;BME280;40093;43.224;27.910;2023-03-12T07:04:40;99819.97;;;11.72;50.77
11523;BME280;40093;43.224;27.910;2023-03-12T07:07:08;99819.91;;;11.79;49.30
11523;BME280;40093;43.224;27.910;2023-03-12T07:09:35;99827.41;;;11.78;48.49
11523;BME280;40093;43.224;27.910;2023-03-12T07:12:03;99831.19;;;12.12;48.86
11523;BME280;40093;43.224;27.910;2023-03-12T07:14:29;99838.63;;;12.19;48.55
11523;BME280;40093;43.224;27.910;2023-03-12T07:16:58;99847.81;;;11.98;48.13
11523;BME280;40093;43.224;27.910;2023-03-12T07:19:26;99853.59;;;12.21;47.72
11523;BME280;40093;43.224;27.910;2023-03-12T07:21:54;99856.03;;;12.02;46.70
11523;BME280;40093;43.224;27.910;2023-03-12T07:24:22;99867.41;;;12.21;46.73
11523;BME280;40093;43.224;27.910;2023-03-12T07:26:49;99860.84;;;12.62;47.00
11523;BME280;40093;43.224;27.910;2023-03-12T07:29:16;99868.00;;;13.07;45.88
11523;BME280;40093;43.224;27.910;2023-03-12T07:31:43;99872.28;;;13.15;44.73
11523;BME280;40093;43.224;27.910;2023-03-12T07:34:11;99870.06;;;12.96;44.63
11523;BME280;40093;43.224;27.910;2023-03-12T07:36:38;99879.63;;;12.85;44.72
11523;BME280;40093;43.224;27.910;2023-03-12T07:39:05;99874.78;;;12.38;45.92
11523;BME280;40093;43.224;27.910;2023-03-12T07:41:33;99882.03;;;12.11;46.00
11523;BME280;40093;43.224;27.910;2023-03-12T07:44:02;99876.28;;;11.60;46.83
11523;BME280;40093;43.224;27.910;2023-03-12T07:46:29;99887.69;;;11.38;47.53
11523;BME280;40093;43.224;27.910;2023-03-12T07:48:56;99883.38;;;11.19;48.26
11523;BME280;40093;43.224;27.910;2023-03-12T07:51:25;99891.66;;;11.02;48.35
11523;BME280;40093;43.224;27.910;2023-03-12T07:53:52;99896.78;;;10.96;48.75
11523;BME280;40093;43.224;27.910;2023-03-12T07:56:19;99891.66;;;10.91;49.23
11523;BME280;40093;43.224;27.910;2023-03-12T07:58:46;99897.56;;;10.93;49.21
11523;BME280;40093;43.224;27.910;2023-03-12T08:01:13;99907.34;;;10.80;49.40
11523;BME280;40093;43.224;27.910;2023-03-12T08:03:40;99914.06;;;10.72;49.89
11523;BME280;40093;43.224;27.910;2023-03-12T08:06:07;99905.41;;;10.84;50.18
11523;BME280;40093;43.224;27.910;2023-03-12T08:08:36;99905.44;;;10.91;50.17
11523;BME280;40093;43.224;27.910;2023-03-12T08:11:06;99906.19;;;10.74;50.58
11523;BME280;40093;43.224;27.910;2023-03-12T08:13:34;99912.50;;;10.85;50.21
11523;BME280;40093;43.224;27.910;2023-03-12T08:16:00;99926.66;;;10.98;50.05
11523;BME280;40093;43.224;27.910;2023-03-12T08:18:27;99924.31;;;11.03;50.13
11523;BME280;40093;43.224;27.910;2023-03-12T08:20:54;99929.38;;;10.70;50.47
11523;BME280;40093;43.224;27.910;2023-03-12T08:23:21;99940.00;;;10.82;50.75
11523;BME280;40093;43.224;27.910;2023-03-12T08:25:50;99936.84;;;10.80;50.10
11523;BME280;40093;43.224;27.910;2023-03-12T08:28:18;99952.56;;;10.72;50.75
11523;BME280;40093;43.224;27.910;2023-03-12T08:30:46;99954.16;;;10.77;50.40
11523;BME280;40093;43.224;27.910;2023-03-12T08:33:13;99965.56;;;10.89;50.63
11523;BME280;40093;43.224;27.910;2023-03-12T08:35:40;99967.94;;;11.01;50.54
11523;BME280;40093;43.224;27.910;2023-03-12T08:38:07;99967.97;;;10.94;50.35
11523;BME280;40093;43.224;27.910;2023-03-12T08:40:34;99980.53;;;10.95;50.26
11523;BME280;40093;43.224;27.910;2023-03-12T08:43:02;99982.13;;;11.03;50.34
11523;BME280;40093;43.224;27.910;2023-03-12T08:45:29;99996.28;;;11.05;50.29
11523;BME280;40093;43.224;27.910;2023-03-12T08:47:56;99995.16;;;11.34;50.19
11523;BME280;40093;43.224;27.910;2023-03-12T08:50:23;100003.75;;;11.08;50.36
11523;BME280;40093;43.224;27.910;2023-03-12T08:52:53;100001.44;;;11.38;50.08
11523;BME280;40093;43.224;27.910;2023-03-12T08:55:20;100005.38;;;11.51;49.27
11523;BME280;40093;43.224;27.910;2023-03-12T08:57:47;100007.34;;;11.44;50.14
11523;BME280;40093;43.224;27.910;2023-03-12T09:00:16;100013.66;;;11.79;49.64
11523;BME280;40093;43.224;27.910;2023-03-12T09:02:44;100011.69;;;11.90;48.54
11523;BME280;40093;43.224;27.910;2023-03-12T09:05:12;100013.28;;;11.63;48.49
11523;BME280;40093;43.224;27.910;2023-03-12T09:07:39;100007.75;;;11.53;48.74
11523;BME280;40093;43.224;27.910;2023-03-12T09:10:07;100012.06;;;11.85;48.45
11523;BME280;40093;43.224;27.910;2023-03-12T09:12:34;100017.19;;;11.80;48.53
11523;BME280;40093;43.224;27.910;2023-03-12T09:15:01;100017.59;;;11.92;47.68
11523;BME280;40093;43.224;27.910;2023-03-12T09:17:29;100027.41;;;12.07;47.76
11523;BME280;40093;43.224;27.910;2023-03-12T09:19:56;100031.34;;;12.20;47.71
11523;BME280;40093;43.224;27.910;2023-03-12T09:22:23;100033.66;;;12.36;47.93
11523;BME280;40093;43.224;27.910;2023-03-12T09:24:50;100025.63;;;12.69;46.55
11523;BME280;40093;43.224;27.910;2023-03-12T09:27:17;100040.91;;;12.91;45.59
11523;BME280;40093;43.224;27.910;2023-03-12T09:29:44;100036.56;;;13.00;44.66
11523;BME280;40093;43.224;27.910;2023-03-12T09:32:11;100033.44;;;12.84;44.06
11523;BME280;40093;43.224;27.910;2023-03-12T09:34:41;100036.59;;;12.97;44.17
11523;BME280;40093;43.224;27.910;2023-03-12T09:37:08;100041.25;;;13.07;44.39
11523;BME280;40093;43.224;27.910;2023-03-12T09:39:35;100045.03;;;13.34;43.98
11523;BME280;40093;43.224;27.910;2023-03-12T09:42:04;100047.44;;;13.28;43.38
11523;BME280;40093;43.224;27.910;2023-03-12T09:44:35;100051.53;;;13.03;43.39
11523;BME280;40093;43.224;27.910;2023-03-12T09:47:09;100049.19;;;12.91;44.16
11523;BME280;40093;43.224;27.910;2023-03-12T09:49:45;100049.38;;;12.49;45.23
11523;BME280;40093;43.224;27.910;2023-03-12T09:52:20;100047.00;;;12.51;46.05
11523;BME280;40093;43.224;27.910;2023-03-12T09:54:55;100056.03;;;12.62;46.33
11523;BME280;40093;43.224;27.910;2023-03-12T09:57:25;100051.53;;;13.03;45.54
11523;BME280;40093;43.224;27.910;2023-03-12T09:59:55;100060.16;;;13.12;44.66
11523;BME280;40093;43.224;27.910;2023-03-12T10:02:41;100056.50;;;13.32;44.11
11523;BME280;40093;43.224;27.910;2023-03-12T10:05:16;100066.72;;;13.42;44.16
11523;BME280;40093;43.224;27.910;2023-03-12T10:07:47;100065.91;;;13.42;43.96
11523;BME280;40093;43.224;27.910;2023-03-12T10:10:34;100062.72;;;13.47;44.36
11523;BME280;40093;43.224;27.910;2023-03-12T10:13:16;100066.03;;;13.79;43.61
11523;BME280;40093;43.224;27.910;2023-03-12T10:15:53;100072.81;;;13.09;44.33
11523;BME280;40093;43.224;27.910;2023-03-12T10:18:31;100066.94;;;13.62;43.04
11523;BME280;40093;43.224;27.910;2023-03-12T10:21:15;100068.22;;;13.98;42.95
11523;BME280;40093;43.224;27.910;2023-03-12T10:23:53;100076.78;;;14.14;41.90
11523;BME280;40093;43.224;27.910;2023-03-12T10:26:25;100074.53;;;14.02;41.54
11523;BME280;40093;43.224;27.910;2023-03-12T10:28:58;100080.06;;;14.02;41.22
11523;BME280;40093;43.224;27.910;2023-03-12T10:31:28;100079.41;;;13.87;41.53
11523;BME280;40093;43.224;27.910;2023-03-12T10:33:59;100083.50;;;13.69;41.14
11523;BME280;40093;43.224;27.910;2023-03-12T10:36:34;100078.88;;;14.03;40.84
11523;BME280;40093;43.224;27.910;2023-03-12T10:39:02;100078.84;;;13.59;41.48
11523;BME280;40093;43.224;27.910;2023-03-12T10:41:31;100076.75;;;13.12;42.79
11523;BME280;40093;43.224;27.910;2023-03-12T10:44:02;100075.16;;;13.11;43.60
11523;BME280;40093;43.224;27.910;2023-03-12T10:46:40;100071.47;;;13.35;43.45
11523;BME280;40093;43.224;27.910;2023-03-12T10:49:26;100068.31;;;12.43;45.00
11523;BME280;40093;43.224;27.910;2023-03-12T10:51:57;100079.66;;;12.70;44.78
11523;BME280;40093;43.224;27.910;2023-03-12T10:54:28;100073.00;;;12.64;45.40
11523;BME280;40093;43.224;27.910;2023-03-12T10:56:56;100076.94;;;12.59;45.03
11523;BME280;40093;43.224;27.910;2023-03-12T10:59:27;100089.56;;;12.64;44.79
11523;BME280;40093;43.224;27.910;2023-03-12T11:01:54;100072.28;;;12.25;45.59
11523;BME280;40093;43.224;27.910;2023-03-12T11:04:23;100082.56;;;12.21;45.89
11523;BME280;40093;43.224;27.910;2023-03-12T11:07:17;100092.41;;;12.15;45.86
11523;BME280;40093;43.224;27.910;2023-03-12T11:09:45;100088.50;;;11.81;46.69
11523;BME280;40093;43.224;27.910;2023-03-12T11:12:23;100084.94;;;12.16;46.28
11523;BME280;40093;43.224;27.910;2023-03-12T11:14:51;100092.00;;;12.41;45.88
11523;BME280;40093;43.224;27.910;2023-03-12T11:17:20;100086.88;;;12.22;45.91
11523;BME280;40093;43.224;27.910;2023-03-12T11:19:47;100085.63;;;12.58;45.88
11523;BME280;40093;43.224;27.910;2023-03-12T11:22:26;100088.25;;;13.00;45.33
11523;BME280;40093;43.224;27.910;2023-03-12T11:24:55;100090.25;;;12.82;44.77
11523;BME280;40093;43.224;27.910;2023-03-12T11:27:31;100090.69;;;12.73;45.25
11523;BME280;40093;43.224;27.910;2023-03-12T11:30:05;100085.66;;;12.44;44.49
11523;BME280;40093;43.224;27.910;2023-03-12T11:32:36;100092.38;;;12.29;44.89
11523;BME280;40093;43.224;27.910;2023-03-12T11:35:09;100093.47;;;12.66;44.50
11523;BME280;40093;43.224;27.910;2023-03-12T11:37:44;100102.91;;;12.76;43.83
11523;BME280;40093;43.224;27.910;2023-03-12T11:40:20;100098.16;;;12.76;43.32
11523;BME280;40093;43.224;27.910;2023-03-12T11:43:11;100097.84;;;12.53;44.17
11523;BME280;40093;43.224;27.910;2023-03-12T11:45:50;100095.81;;;12.78;44.23
11523;BME280;40093;43.224;27.910;2023-03-12T11:48:24;100095.47;;;12.66;44.51
11523;BME280;40093;43.224;27.910;2023-03-12T11:51:04;100095.09;;;12.50;45.00
11523;BME280;40093;43.224;27.910;2023-03-12T11:53:46;100099.06;;;12.42;44.59
11523;BME280;40093;43.224;27.910;2023-03-12T11:56:24;100095.88;;;12.54;44.99
11523;BME280;40093;43.224;27.910;2023-03-12T11:59:22;100095.84;;;12.71;44.10
11523;BME280;40093;43.224;27.910;2023-03-12T12:02:01;100108.44;;;12.83;43.99
11523;BME280;40093;43.224;27.910;2023-03-12T12:04:41;100106.81;;;12.96;44.04
11523;BME280;40093;43.224;27.910;2023-03-12T12:07:31;100106.38;;;13.04;43.87
11523;BME280;40093;43.224;27.910;2023-03-12T12:10:07;100107.56;;;13.07;44.29
11523;BME280;40093;43.224;27.910;2023-03-12T12:12:50;100105.88;;;13.27;44.13
11523;BME280;40093;43.224;27.910;2023-03-12T12:15:29;100114.69;;;13.01;44.32
11523;BME280;40093;43.224;27.910;2023-03-12T12:18:05;100113.09;;;13.07;44.02
11523;BME280;40093;43.224;27.910;2023-03-12T12:20:44;100114.31;;;12.85;44.08
11523;BME280;40093;43.224;27.910;2023-03-12T12:23:16;100114.78;;;12.73;44.58
11523;BME280;40093;43.224;27.910;2023-03-12T12:26:02;100118.34;;;12.59;45.34
11523;BME280;40093;43.224;27.910;2023-03-12T12:29:18;100127.84;;;12.31;45.58
11523;BME280;40093;43.224;27.910;2023-03-12T12:31:49;100123.50;;;12.47;45.39
11523;BME280;40093;43.224;27.910;2023-03-12T12:34:51;100126.25;;;12.40;45.50
11523;BME280;40093;43.224;27.910;2023-03-12T12:37:32;100140.06;;;12.57;45.90
11523;BME280;40093;43.224;27.910;2023-03-12T12:40:11;100144.00;;;12.46;46.26
11523;BME280;40093;43.224;27.910;2023-03-12T12:42:52;100148.34;;;12.37;46.47
11523;BME280;40093;43.224;27.910;2023-03-12T12:45:23;100161.31;;;12.50;47.23
11523;BME280;40093;43.224;27.910;2023-03-12T12:47:56;100153.03;;;12.57;54.36
11523;BME280;40093;43.224;27.910;2023-03-12T12:50:28;100159.78;;;12.28;56.54
11523;BME280;40093;43.224;27.910;2023-03-12T12:53:01;100170.81;;;12.07;57.19
11523;BME280;40093;43.224;27.910;2023-03-12T12:55:33;100170.81;;;11.83;59.37
11523;BME280;40093;43.224;27.910;2023-03-12T12:58:09;100178.63;;;11.63;61.76
11523;BME280;40093;43.224;27.910;2023-03-12T13:00:42;100186.47;;;11.51;62.79
11523;BME280;40093;43.224;27.910;2023-03-12T13:03:13;100202.59;;;11.45;63.49
11523;BME280;40093;43.224;27.910;2023-03-12T13:05:53;100209.97;;;11.27;64.07